M I D A S
Marine Information and Data Acquisition System
Tripno 325 of the Zeeleeuw from 2002-08-12 06:44:28 to 2002-08-12 13:50:56
Back to CruiseResearch ActivitiesStationsMapUnderway DataData graphs

EquipmentUnitsComment
TimeDGPSUTC
LatitudeDGPSDM.mWGS84
LongitudeDGPSDM.mWGS84
HeadingGyrodeg 
SOGDGPSknotsSpeed over ground
COGDGPSdegCourse over ground
DepthEcho soundermeters200 kHz
Missing or incorrect values are displayed as -999
Navigation data collected by the RV Zeeleeuw from 2002-08-12 06:44:28 to 2002-08-12 13:50:56
Time Latitude Longitude Heading SOG COG Depth
2002-08-12 06:45:32 51°13.633 2°55.955 309.2 2.6 307.3 10.4
2002-08-12 06:46:32 51°13.666 2°55.875 302.5 4.1 301.6 10.5
2002-08-12 06:47:32 51°13.704 2°55.771 307.3 4.9 302.6 13.4
2002-08-12 06:48:32 51°13.765 2°55.688 334.5 4.8 330.5 10.2
2002-08-12 06:49:32 51°13.842 2°55.631 337.3 5.2 335.4 10.3
2002-08-12 06:50:32 51°13.925 2°55.574 338.8 5.7 337.6 10.9
2002-08-12 06:51:32 51°14.018 2°55.51 337 6.2 335 10.3
2002-08-12 06:52:32 51°14.115 2°55.434 335.3 6.9 333.1 10.4
2002-08-12 06:53:32 51°14.216 2°55.329 322.8 7.3 322.6 10.6
2002-08-12 06:54:32 51°14.304 2°55.19 313.3 7.6 310.6 10.5
2002-08-12 06:55:32 51°14.374 2°55.018 302.8 7.6 298.5 10
2002-08-12 06:56:32 51°14.387 2°54.824 272.2 7.6 266.2 9.7
2002-08-12 06:57:32 51°14.35 2°54.62 250.7 8.3 247.3 9.1
2002-08-12 06:58:32 51°14.288 2°54.42 245.3 8.6 242.4 8.9
2002-08-12 06:59:32 51°14.206 2°54.173 245 11.9 242.1 8.7
2002-08-12 07:00:32 51°14.105 2°53.859 245.7 14.2 243.2 8.7
2002-08-12 07:01:32 51°13.997 2°53.513 246 14.8 243.8 8.7
2002-08-12 07:02:30 51°13.89 2°53.172 246.2 14.9 244 9
2002-08-12 07:03:32 51°13.774 2°52.802 245.2 15 242.8 9.3
2002-08-12 07:04:32 51°13.661 2°52.447 246 14.9 243.4 9.5
2002-08-12 07:05:32 51°13.549 2°52.092 245.8 14.9 243.4 9.9
2002-08-12 07:06:32 51°13.439 2°51.736 246.3 14.9 243.8 10
2002-08-12 07:07:32 51°13.326 2°51.382 244.7 15 242.2 9.9
2002-08-12 07:08:32 51°13.206 2°51.032 244.3 15 242 10.1
2002-08-12 07:09:32 51°13.087 2°50.682 244 15.1 241.7 10.2
2002-08-12 07:10:32 51°12.968 2°50.331 244 15.1 241.7 10.4
2002-08-12 07:11:32 51°12.849 2°49.979 243.5 15.1 241.5 10.5
2002-08-12 07:12:32 51°12.731 2°49.629 244 15.1 241.8 10.6
2002-08-12 07:13:32 51°12.613 2°49.279 243.5 15 241.2 10.8
2002-08-12 07:14:32 51°12.495 2°48.927 244.2 15 242 10.8
2002-08-12 07:15:32 51°12.376 2°48.573 244.3 15.1 241.9 10.9
2002-08-12 07:16:32 51°12.256 2°48.221 242.7 15.1 240.8 11
2002-08-12 07:17:32 51°12.134 2°47.87 243.3 15.1 241.4 11.1
2002-08-12 07:18:32 51°12.012 2°47.519 243.2 15.1 241 11
2002-08-12 07:19:32 51°11.889 2°47.168 243.2 15.1 241.2 10.8
2002-08-12 07:20:32 51°11.767 2°46.818 243.2 15.1 241.1 10.7
2002-08-12 07:21:32 51°11.649 2°46.474 243.8 14.7 241.6 10.7
2002-08-12 07:22:32 51°11.532 2°46.136 243.5 14.5 241.7 10.5
2002-08-12 07:23:32 51°11.417 2°45.798 242.7 14.5 240.9 10.2
2002-08-12 07:24:32 51°11.3 2°45.457 243.8 14.6 242.1 9.9
2002-08-12 07:25:32 51°11.184 2°45.119 242.8 14.7 241.2 9.5
2002-08-12 07:26:32 51°11.068 2°44.78 243.5 14.6 241.5 9.2
2002-08-12 07:27:32 51°10.951 2°44.442 241.8 14.7 240.4 8.7
2002-08-12 07:28:32 51°10.838 2°44.102 243.5 14.3 242.1 8.5
2002-08-12 07:29:32 51°10.725 2°43.763 243.2 14.4 241.5 8.2
2002-08-12 07:30:32 51°10.609 2°43.428 244.7 14.4 243 7.9
2002-08-12 07:31:32 51°10.514 2°43.08 247.2 14.5 244.9 7.8
2002-08-12 07:32:32 51°10.409 2°42.741 248.5 14.3 246.5 7.8
2002-08-12 07:33:32 51°10.324 2°42.39 248 14.2 245.7 7.7
2002-08-12 07:34:32 51°10.231 2°42.045 255 14.2 252.5 7.8
2002-08-12 07:35:32 51°10.142 2°41.695 244.7 14.2 243.7 7.7
2002-08-12 07:36:32 51°10.065 2°41.337 258.7 14.3 256.2 7.9
2002-08-12 07:37:32 51°9.986 2°40.977 252.5 14.5 250.6 8.1
2002-08-12 07:38:32 51°9.907 2°40.614 250.3 14.5 248.7 8.3
2002-08-12 07:39:32 51°9.827 2°40.251 252 14.6 250.4 8.6
2002-08-12 07:40:32 51°9.749 2°39.884 252.8 14.6 251.2 8.6
2002-08-12 07:41:32 51°9.67 2°39.515 253.2 14.8 251.2 8.8
2002-08-12 07:42:32 51°9.59 2°39.144 252.8 14.8 251.1 9
2002-08-12 07:43:32 51°9.511 2°38.77 252.5 14.9 251 9.3
2002-08-12 07:44:32 51°9.43 2°38.396 252.7 14.9 250.8 9.4
2002-08-12 07:45:32 51°9.333 2°38.033 247.8 14.9 246.5 9.4
2002-08-12 07:46:32 51°9.226 2°37.679 244.8 14.7 243.6 9
2002-08-12 07:47:32 51°9.147 2°37.418 244.2 8.4 243 9.3
2002-08-12 07:48:32 51°9.087 2°37.274 226.5 5.3 230 9
2002-08-12 07:49:32 51°9.063 2°37.221 253.7 0.4 208 8.9
2002-08-12 07:50:32 51°9.054 2°37.179 272.5 3.8 261.3 8.8
2002-08-12 07:51:32 51°9.095 2°37.086 355 4.6 340.6 9.2
2002-08-12 07:52:32 51°9.143 2°37.147 87.3 4.3 87.3 9.5
2002-08-12 07:53:32 51°9.101 2°37.25 135 4.3 144.2 9
2002-08-12 07:54:32 51°9.071 2°37.271 108.2 0.9 241.6 8.9
2002-08-12 07:55:32 51°9.073 2°37.281 56.3 1.6 46.6 8.8
2002-08-12 07:56:32 51°9.093 2°37.292 29.8 0.8 349.6 9
2002-08-12 07:57:32 51°9.101 2°37.284 21.8 0.7 333.6 9
2002-08-12 07:58:32 51°9.114 2°37.275 17.2 0.8 336.7 9.1
2002-08-12 07:59:32 51°9.128 2°37.265 17.8 1 337.4 9.2
2002-08-12 08:00:32 51°9.145 2°37.257 17.8 1.1 339.6 9.3
2002-08-12 08:01:32 51°9.162 2°37.248 18.3 1.1 344.3 9.5
2002-08-12 08:02:32 51°9.179 2°37.24 18.5 1 338.2 9.6
2002-08-12 08:03:32 51°9.191 2°37.229 17 0.7 321.2 9.7
2002-08-12 08:04:32 51°9.197 2°37.214 14.5 0.6 302.2 9.8
2002-08-12 08:05:32 51°9.226 2°37.173 317.2 5.4 305.2 10.3
2002-08-12 08:06:32 51°9.177 2°37.03 187.3 7.2 193.2 10.1
2002-08-12 08:07:32 51°9.135 2°37.142 64.2 5.8 61.5 9.3
2002-08-12 08:08:32 51°9.159 2°37.25 79.5 3.9 78.2 9.4
2002-08-12 08:09:32 51°9.164 2°37.286 53.2 0.1 272.6 9.3
2002-08-12 08:10:32 51°9.165 2°37.278 35.5 0.4 278.6 9.4
2002-08-12 08:11:32 51°9.165 2°37.267 32.2 0.4 268.7 9.4
2002-08-12 08:12:32 51°9.165 2°37.256 30.7 0.5 260.7 9.4
2002-08-12 08:13:32 51°9.163 2°37.244 29.8 0.5 253 9.3
2002-08-12 08:14:32 51°9.161 2°37.232 26.5 0.4 263.7 9.3
2002-08-12 08:15:32 51°9.162 2°37.22 21 0.5 287.2 9.4
2002-08-12 08:16:32 51°9.165 2°37.207 18.5 0.5 297.5 9.4
2002-08-12 08:17:32 51°9.172 2°37.196 22.7 0.6 324.8 9.5
2002-08-12 08:18:32 51°9.182 2°37.191 35.8 0.7 354.3 9.6
2002-08-12 08:19:32 51°9.192 2°37.197 56 0.6 41.2 9.7
2002-08-12 08:20:32 51°9.197 2°37.214 76 0.8 82.2 9.6
2002-08-12 08:21:32 51°9.2 2°37.238 71.2 1 74.8 9.6
2002-08-12 08:22:32 51°9.203 2°37.262 70.5 0.8 76.5 9.6
2002-08-12 08:23:33 51°9.204 2°37.281 78.7 0.7 97.1 9.6
2002-08-12 08:24:32 51°9.2 2°37.297 88.2 0.7 121.7 9.5
2002-08-12 08:25:32 51°9.191 2°37.312 100.5 0.9 140 9.4
2002-08-12 08:26:32 51°9.177 2°37.327 115.3 1.1 153.1 9.2
2002-08-12 08:27:32 51°9.156 2°37.336 137 1.4 172.1 9.1
2002-08-12 08:28:32 51°9.127 2°37.332 163.7 1.9 190.8 8.9
2002-08-12 08:29:32 51°9.094 2°37.318 177.3 2.2 196.5 8.7
2002-08-12 08:30:32 51°9.058 2°37.296 190.5 2.4 204.5 8.5
2002-08-12 08:31:32 51°9.022 2°37.262 203.8 2.6 215 8.3
2002-08-12 08:32:32 51°8.991 2°37.218 223.7 2.4 227.2 8.1
2002-08-12 08:33:32 51°8.968 2°37.172 235.7 2.1 232.5 7.9
2002-08-12 08:34:32 51°8.942 2°37.082 258.8 7.4 254.1 7.7
2002-08-12 08:35:32 51°8.904 2°36.776 268.8 13.1 265.4 7.2
2002-08-12 08:36:32 51°8.897 2°36.417 271.7 13.9 267.9 7.6
2002-08-12 08:37:32 51°8.885 2°36.036 270.3 14.8 266.3 9.1
2002-08-12 08:38:32 51°8.885 2°35.632 274.2 15.4 269.5 12.4
2002-08-12 08:39:32 51°8.892 2°35.228 281.5 15.2 275.1 14.7
2002-08-12 08:40:32 51°8.922 2°34.83 283.3 15.1 276.7 14.8
2002-08-12 08:41:32 51°8.952 2°34.434 283.3 15 277 14.2
2002-08-12 08:42:32 51°8.983 2°34.041 283.3 15 277.1 14.3
2002-08-12 08:43:32 51°9.02 2°33.648 285 15 278.6 16.4
2002-08-12 08:44:32 51°9.057 2°33.254 285.3 15.1 278.4 16.4
2002-08-12 08:45:32 51°9.097 2°32.978 316.3 6.9 298.7 15.4
2002-08-12 08:46:32 51°9.135 2°32.908 9 1.3 302.2 13.6
2002-08-12 08:47:32 51°9.138 2°32.892 33.3 0.4 272.1 13.3
2002-08-12 08:48:32 51°9.136 2°32.88 33.3 0.5 247.3 13.1
2002-08-12 08:49:32 51°9.131 2°32.866 30.5 0.7 239.6 13.1
2002-08-12 08:50:32 51°9.124 2°32.85 30.3 0.8 232.9 13.1
2002-08-12 08:51:32 51°9.115 2°32.833 30.5 0.9 230.7 13.1
2002-08-12 08:52:32 51°9.105 2°32.815 29.5 0.9 231.1 13.2
2002-08-12 08:53:32 51°9.094 2°32.794 27.7 1 228 13.2
2002-08-12 08:54:33 51°9.082 2°32.776 30.5 0.9 227.3 13.5
2002-08-12 08:55:32 51°9.073 2°32.759 23.8 0.8 235.4 13.5
2002-08-12 08:56:32 51°9.067 2°32.741 12 0.7 254.4 13.4
2002-08-12 08:57:32 51°9.069 2°32.721 7.7 0.8 290.4 13.1
2002-08-12 08:58:32 51°9.078 2°32.702 8 1.2 326.6 12.3
2002-08-12 08:59:33 51°9.099 2°32.691 20.7 1.2 349.6 11.3
2002-08-12 09:00:32 51°9.115 2°32.693 38.3 0.8 19.9 10.9
2002-08-12 09:01:32 51°9.122 2°32.7 39.2 0.3 17.9 10.7
2002-08-12 09:02:32 51°9.126 2°32.697 30.8 0.3 320.8 10.6
2002-08-12 09:03:32 51°9.129 2°32.693 38.2 0.2 328 10.5
2002-08-12 09:04:32 51°9.129 2°32.693 43.5   348.2 10.5
2002-08-12 09:05:32 51°9.13 2°32.693 39.2 0.1 305.3 10.5
2002-08-12 09:06:32 51°9.13 2°32.691 36.2 0.2 301.2 10.4
2002-08-12 09:07:32 51°9.131 2°32.687 34.3 0.1 304.9 10.3
2002-08-12 09:08:32 51°9.132 2°32.685 38.3 0.1 336.1 10.3
2002-08-12 09:09:33 51°9.134 2°32.69 48 0.5 56.3 10.3
2002-08-12 09:10:32 51°9.138 2°32.715 70.3 1.4 87.3 10.6
2002-08-12 09:11:32 51°9.128 2°32.761 104.8 2.3 125.9 11.5
2002-08-12 09:12:32 51°9.096 2°32.808 120.3 2.6 145.9 13.6
2002-08-12 09:13:32 51°9.056 2°32.836 133.3 2.8 161.5 15.5
2002-08-12 09:14:32 51°9.009 2°32.851 147.2 3 174.5 16.5
2002-08-12 09:15:32 51°8.956 2°32.848 162.3 3.3 186.5 17.1
2002-08-12 09:16:32 51°8.905 2°32.826 181.2 3 201.3 17.3
2002-08-12 09:17:33 51°8.861 2°32.792 197.2 2.8 209.8 17.4
2002-08-12 09:18:32 51°8.823 2°32.752 208.8 2.9 214.6 17.4
2002-08-12 09:19:32 51°8.693 2°32.627 211.2 13.6 211.4 17.3
2002-08-12 09:20:32 51°8.511 2°32.444 226.2 9.8 224.1 17.2
2002-08-12 09:21:32 51°8.481 2°32.268 293.5 4.9 272.3 17.9
2002-08-12 09:22:32 51°8.482 2°32.195 328 1.7 248.7 17.5
2002-08-12 09:23:33 51°8.449 2°32.17 353.3 2.4 201.7 -999
2002-08-12 09:24:33 51°8.436 2°32.15 33.5 0.3 299.6 -999
2002-08-12 09:25:32 51°8.45 2°32.166 40.8 1.7 38.3 17.7
2002-08-12 09:26:32 51°8.469 2°32.215 66 2.6 72.6 17.9
2002-08-12 09:27:32 51°8.493 2°32.275 45.8 2.7 44.8 17.8
2002-08-12 09:28:33 51°8.501 2°32.285 28.2 0.3 242.3 17.8
2002-08-12 09:29:32 51°8.501 2°32.276 21.7 0.4 285.7 17.8
2002-08-12 09:30:32 51°8.505 2°32.27 33.2 0.3 345.9 17.7
2002-08-12 09:31:32 51°8.507 2°32.279 54.5 0.6 84.2 17.8
2002-08-12 09:32:32 51°8.511 2°32.294 45.5 0.7 51.8 17.8
2002-08-12 09:33:32 51°8.52 2°32.306 42.2 0.7 36.3 17.8
2002-08-12 09:34:32 51°8.528 2°32.322 50.3 0.8 60.3 17.7
2002-08-12 09:35:33 51°8.533 2°32.342 54.7 0.7 81.3 17.8
2002-08-12 09:36:32 51°8.531 2°32.352 52.7 0.3 128.1 17.8
2002-08-12 09:37:32 51°8.526 2°32.354 48.5 0.4 192.2 17.8
2002-08-12 09:38:33 51°8.518 2°32.348 45 0.6 207.3 17.9
2002-08-12 09:39:32 51°8.508 2°32.339 42.3 0.7 211.5 17.8
2002-08-12 09:40:32 51°8.497 2°32.328 40.2 0.8 216 17.8
2002-08-12 09:41:33 51°8.489 2°32.317 34.5 0.4 230.9 17.8
2002-08-12 09:42:33 51°8.487 2°32.311 37.3 0.1 267.6 17.9
2002-08-12 09:43:32 51°8.487 2°32.311 43.2 0.1 78.8 17.9
2002-08-12 09:44:32 51°8.488 2°32.315 45.3 0.2 59.6 17.9
2002-08-12 09:45:32 51°8.49 2°32.322 49.7 0.4 81.2 17.9
2002-08-12 09:46:33 51°8.49 2°32.332 49.2 0.4 83.8 17.9
2002-08-12 09:47:32 51°8.49 2°32.342 50.3 0.4 82.3 17.9
2002-08-12 09:48:32 51°8.488 2°32.352 49.8 0.3 98 18
2002-08-12 09:49:33 51°8.486 2°32.357 49.7 0.2 141.2 18
2002-08-12 09:50:32 51°8.483 2°32.359 39.7 0.2 189.5 17.9
2002-08-12 09:51:32 51°8.481 2°32.355 34.2 0.1 290.2 18
2002-08-12 09:52:32 51°8.487 2°32.361 41 0.8 39.8 18
2002-08-12 09:53:32 51°8.498 2°32.383 50.2 1.2 57.8 17.9
2002-08-12 09:54:32 51°8.505 2°32.41 56.5 1 75.6 17.7
2002-08-12 09:55:32 51°8.5 2°32.436 78.8 1.3 121.8 17.7
2002-08-12 09:56:33 51°8.477 2°32.465 112.3 2.2 153.4 17.8
2002-08-12 09:57:32 51°8.435 2°32.477 143.8 2.8 176.4 17.8
2002-08-12 09:58:33 51°8.386 2°32.475 161.3 3 183.9 17.5
2002-08-12 09:59:32 51°8.337 2°32.463 179.5 3.1 194 17.1
2002-08-12 10:00:33 51°8.288 2°32.435 195.7 3 204 16.8
2002-08-12 10:01:32 51°8.246 2°32.397 213.7 2.9 213.2 16.4
2002-08-12 10:02:32 51°8.208 2°32.351 227.8 2.8 219.9 16.7
2002-08-12 10:03:33 51°8.174 2°32.302 239.7 2.7 225.1 16.3
2002-08-12 10:04:32 51°8.143 2°32.252 238.7 3.2 226.7 16.8
2002-08-12 10:05:32 51°8.085 2°32.198 179.5 2.5 204.9 16.6
2002-08-12 10:06:33 51°8.07 2°32.17 146.7 1.7 196.7 -999
2002-08-12 10:07:32 51°8.043 2°32.201 83.8 1.7 120.2 15.5
2002-08-12 10:08:32 51°8.042 2°32.234 55 1.3 69.9 14.9
2002-08-12 10:09:32 51°8.052 2°32.279 59.3 2.1 69.4 14.8
2002-08-12 10:10:32 51°8.066 2°32.329 61.2 2 71.2 15.6
2002-08-12 10:11:32 51°8.07 2°32.38 68.2 2 83.7 16.9
2002-08-12 10:12:33 51°8.075 2°32.431 64.3 1.8 79.1 17.1
2002-08-12 10:13:33 51°8.081 2°32.478 62.2 1.8 75.9 16.9
2002-08-12 10:14:32 51°8.091 2°32.52 56.8 1.7 67.1 17.1
2002-08-12 10:15:33 51°8.097 2°32.567 69.8 1.9 85.8 16.7
2002-08-12 10:16:32 51°8.097 2°32.618 71.7 1.9 89.8 16.6
2002-08-12 10:17:32 51°8.094 2°32.669 86.8 2 107.9 16.4
2002-08-12 10:18:32 51°8.087 2°32.72 73.7 1.9 92.4 16
2002-08-12 10:19:32 51°8.088 2°32.767 68.8 1.7 88.9 16
2002-08-12 10:20:32 51°8.086 2°32.807 73 1.5 98.6 15.9
2002-08-12 10:21:32 51°8.081 2°32.842 73.7 1.3 105.5 15.7
2002-08-12 10:22:33 51°8.073 2°32.874 75.3 1.2 113.1 15.6
2002-08-12 10:23:33 51°8.065 2°32.901 74 1.1 112.7 15.5
2002-08-12 10:24:33 51°8.057 2°32.925 69.8 0.9 118.3 15.4
2002-08-12 10:25:33 51°8.054 2°32.936 47 0.2 94.4 15.2
2002-08-12 10:26:33 51°8.055 2°32.939 42.5 0.1 104 15.2
2002-08-12 10:27:32 51°8.051 2°32.944 56 0.4 137.1 15.2
2002-08-12 10:28:32 51°8.049 2°32.945 36.5 0.2 245.2 15.3
2002-08-12 10:29:32 51°8.046 2°32.936 23.7 0.4 251.6 15.3
2002-08-12 10:30:33 51°8.044 2°32.921 12.8 0.7 257.6 15.1
2002-08-12 10:31:32 51°8.042 2°32.904 8.8 0.7 261.6 15.2
2002-08-12 10:32:32 51°8.04 2°32.887 14.7 0.7 249.1 15.4
2002-08-12 10:33:32 51°8.04 2°32.875 27.3 0.5 347.8 15.4
2002-08-12 10:34:32 51°8.052 2°32.892 53.2 1.5 55.4 15.5
2002-08-12 10:35:33 51°8.07 2°32.932 50.7 2.1 52.2 15.6
2002-08-12 10:36:33 51°8.091 2°32.969 46.2 1.5 45.5 15.6
2002-08-12 10:37:33 51°8.103 2°32.986 41.5 0.7 40.1 15.7
2002-08-12 10:38:33 51°8.109 2°32.991 37 0.2 5.5 16
2002-08-12 10:39:33 51°8.11 2°32.988 33.5 0.2 262.2 16
2002-08-12 10:40:32 51°8.107 2°32.981 32 0.4 233.2 15.9
2002-08-12 10:41:33 51°8.102 2°32.971 32.3 0.5 223.1 15.9
2002-08-12 10:42:32 51°8.095 2°32.96 32 0.7 221.7 15.8
2002-08-12 10:43:32 51°8.086 2°32.948 33.5 0.7 222.5 15.8
2002-08-12 10:44:32 51°8.082 2°32.94 40.5   268.6 15.9
2002-08-12 10:45:32 51°8.082 2°32.952 66.5 0.8 97.3 15.7
2002-08-12 10:46:32 51°8.071 2°32.971 78.7 1 130.9 15.6
2002-08-12 10:47:33 51°8.06 2°32.987 70.3 0.7 137.5 15.5
2002-08-12 10:48:33 51°8.054 2°32.994 53 0.3 166.7 15.3
2002-08-12 10:49:33 51°8.051 2°32.991 35.2 0.4 232 15.2
2002-08-12 10:50:33 51°8.05 2°32.98 21.2 0.5 262.1 15.3
2002-08-12 10:51:32 51°8.051 2°32.966 12.5 0.6 286.8 15.3
2002-08-12 10:52:33 51°8.058 2°32.952 15.7 0.7 321.7 15.5
2002-08-12 10:53:33 51°8.073 2°32.949 30.7 1.1 11.2 15.7
2002-08-12 10:54:33 51°8.093 2°32.955 25.8 1.2 6.4 16
2002-08-12 10:55:32 51°8.12 2°32.987 60.8 3 60.1 16.2
2002-08-12 10:56:32 51°8.126 2°33.041 67.8 1.8 84.2 15.9
2002-08-12 10:57:32 51°8.13 2°33.074 54.2 0.8 67.7 16
2002-08-12 10:58:33 51°8.134 2°33.084 44.3 0.2 66.7 16
2002-08-12 10:59:32 51°8.134 2°33.083 35.8 0.2 248.2 16
2002-08-12 11:00:32 51°8.131 2°33.075 31.8 0.5 233 16.1
2002-08-12 11:01:33 51°8.124 2°33.064 30.7 0.7 225 16.1
2002-08-12 11:02:32 51°8.116 2°33.05 30.3 0.8 222.7 16
2002-08-12 11:03:33 51°8.105 2°33.035 28.8 0.8 220.3 15.9
2002-08-12 11:04:33 51°8.094 2°33.019 30.3 1 221 15.9
2002-08-12 11:05:33 51°8.082 2°33.002 30 1 221.4 15.8
2002-08-12 11:06:33 51°8.069 2°32.986 30.2 1 216.9 15.7
2002-08-12 11:07:32 51°8.056 2°32.971 31.3 0.9 217.5 15.6
2002-08-12 11:08:32 51°8.046 2°32.959 32.7 0.5 226.7 15.5
2002-08-12 11:09:33 51°8.045 2°32.951 28.7 0.3 284.3 15.6
2002-08-12 11:10:32 51°8.05 2°32.946 29.3 0.5 348.9 15.7
2002-08-12 11:11:33 51°8.061 2°32.947 33.3 0.8 11.9 15.8
2002-08-12 11:12:33 51°8.073 2°32.953 37.5 0.8 24.7 15.9
2002-08-12 11:13:33 51°8.086 2°32.965 40.7 0.9 33.6 16
2002-08-12 11:14:32 51°8.099 2°32.982 44.2 1 41.8 16.1
2002-08-12 11:15:33 51°8.112 2°33.003 47.7 1.1 49.2 16.3
2002-08-12 11:16:32 51°8.116 2°33.029 73 1.2 95.4 16.3
2002-08-12 11:17:32 51°8.102 2°33.059 103.2 1.6 139.8 16
2002-08-12 11:18:32 51°8.061 2°33.087 152.5 4.6 167.8 15.3
2002-08-12 11:19:33 51°7.966 2°33.003 231.2 8 227.6 13.6
2002-08-12 11:20:32 51°7.874 2°32.819 234.2 9.4 230.9 12.6
2002-08-12 11:21:32 51°7.799 2°32.653 242.7 6.8 236.1 12.2
2002-08-12 11:22:33 51°7.739 2°32.516 242.3 5.9 234.5 11.9
2002-08-12 11:23:33 51°7.684 2°32.395 241.5 5.5 233.5 11.6
2002-08-12 11:24:32 51°7.632 2°32.282 242.5 5.3 234 11.2
2002-08-12 11:25:32 51°7.579 2°32.171 241 5.3 232.8 11
2002-08-12 11:26:33 51°7.524 2°32.06 240 5.2 231.4 11
2002-08-12 11:27:32 51°7.474 2°31.952 244.8 5.1 235.3 11.1
2002-08-12 11:28:33 51°7.427 2°31.84 248.3 5 237.3 11.1
2002-08-12 11:29:32 51°7.383 2°31.731 243.7 5 234.6 11
2002-08-12 11:30:33 51°7.328 2°31.626 236.3 5.1 228.6 10.5
2002-08-12 11:31:33 51°7.273 2°31.524 238.5 5.1 230.1 10.6
2002-08-12 11:32:33 51°7.218 2°31.422 236.8 5.1 229.1 10.4
2002-08-12 11:33:33 51°7.161 2°31.323 234.2 5.1 226.7 9.4
2002-08-12 11:34:33 51°7.103 2°31.226 237.8 5 228.3 9.6
2002-08-12 11:35:32 51°7.055 2°31.124 247.7 4.8 236.4 9.7
2002-08-12 11:36:32 51°7.015 2°31.016 255.5 4.7 242.1 9.7
2002-08-12 11:37:32 51°6.981 2°30.905 254 4.7 242.1 9.7
2002-08-12 11:38:33 51°6.926 2°30.831 198.7 4.1 201 9.2
2002-08-12 11:39:32 51°6.862 2°30.832 163.5 4.1 171.9 9.2
2002-08-12 11:40:32 51°6.782 2°30.845 173.8 5.2 177.4 8.5
2002-08-12 11:41:32 51°6.691 2°30.855 169.5 5.6 173.5 8.3
2002-08-12 11:42:33 51°6.596 2°30.88 168.8 5.8 171.7 8
2002-08-12 11:43:32 51°6.501 2°30.897 171 5.9 173.4 8
2002-08-12 11:44:33 51°6.414 2°30.948 125.7 5.4 132.7 10.3
2002-08-12 11:45:32 51°6.421 2°31.082 65 7 66.6 10.8
2002-08-12 11:46:32 51°6.481 2°31.312 73.7 10.4 73.1 10.9
2002-08-12 11:47:32 51°6.549 2°31.572 65.2 10.8 63.9 11
2002-08-12 11:48:32 51°6.619 2°31.835 63.5 10.8 62.8 11
2002-08-12 11:49:33 51°6.692 2°32.1 68 10.9 67.2 10.7
2002-08-12 11:50:33 51°6.765 2°32.361 64.2 10.9 63.7 10.2
2002-08-12 11:51:33 51°6.81 2°32.578 59.7 6.2 62 10.4
2002-08-12 11:52:33 51°6.847 2°32.654 37.2 0.5 81.9 9.6
2002-08-12 11:53:33 51°6.84 2°32.665 40.2 0.6 133.1 10.1
2002-08-12 11:54:33 51°6.834 2°32.678 40 0.6 118.3 10.4
2002-08-12 11:55:33 51°6.831 2°32.693 32.2 0.5 100.2 10.5
2002-08-12 11:56:33 51°6.83 2°32.707 24.8 0.5 89 10.6
2002-08-12 11:57:32 51°6.831 2°32.719 17 0.4 78.4 10.7
2002-08-12 11:58:33 51°6.833 2°32.73 12 0.4 74.7 10.7
2002-08-12 11:59:33 51°6.835 2°32.741 11.3 0.4 72.5 10.8
2002-08-12 12:00:33 51°6.837 2°32.752 9.7 0.4 72.8 10.8
2002-08-12 12:01:33 51°6.839 2°32.762 4.3 0.4 72.8 10.7
2002-08-12 12:02:32 51°6.841 2°32.772 0.3 0.4 70.8 10.8
2002-08-12 12:03:33 51°6.843 2°32.782 358 0.4 76.7 10.8
2002-08-12 12:04:33 51°6.844 2°32.793 357.8 0.4 76.5 10.8
2002-08-12 12:05:33 51°6.846 2°32.803 2.7 0.4 68.4 10.8
2002-08-12 12:06:33 51°6.849 2°32.815 9.8 0.6 72.6 11
2002-08-12 12:07:33 51°6.853 2°32.829 13.7 0.6 63.3 11.1
2002-08-12 12:08:33 51°6.858 2°32.844 18 0.7 59.5 11
2002-08-12 12:09:33 51°6.864 2°32.861 19.8 0.8 60.6 11.1
2002-08-12 12:10:33 51°6.87 2°32.879 21 0.8 59.3 10.9
2002-08-12 12:11:33 51°6.876 2°32.898 22.7 0.9 62.2 10.9
2002-08-12 12:12:33 51°6.884 2°32.92 25.8 1.3 53.9 10.8
2002-08-12 12:13:33 51°6.881 2°33.041 131.7 6.8 129.3 11.1
2002-08-12 12:14:33 51°6.78 2°33.068 192.5 5.2 185.5 10.9
2002-08-12 12:15:33 51°6.736 2°33.052 229.7 1 188.1 10.6
2002-08-12 12:16:33 51°6.72 2°33.043 247.5 1 208.5 10.6
2002-08-12 12:17:33 51°6.707 2°33.027 259.8 1 225 10.3
2002-08-12 12:18:33 51°6.696 2°33.007 269.5 1 235.6 10.4
2002-08-12 12:19:32 51°6.689 2°32.986 277.5 0.9 243.9 10.2
2002-08-12 12:20:33 51°6.684 2°32.964 288.2 0.8 263 10.5
2002-08-12 12:21:33 51°6.686 2°32.945 301.7 0.7 287.5 10.8
2002-08-12 12:22:33 51°6.694 2°32.929 311.5 0.8 313.4 10.9
2002-08-12 12:23:33 51°6.702 2°32.912 296.3 0.8 294.7 11.2
2002-08-12 12:24:33 51°6.695 2°32.797 265.3 7.6 261.2 11.4
2002-08-12 12:25:33 51°6.652 2°32.561 259.8 9.9 255.7 11.6
2002-08-12 12:26:33 51°6.635 2°32.3 259.3 10 256.2 12
2002-08-12 12:27:33 51°6.581 2°32.044 256.2 10.2 252.1 12.4
2002-08-12 12:28:33 51°6.56 2°31.779 263.8 10.1 260.1 12.8
2002-08-12 12:29:33 51°6.522 2°31.516 262.8 10.2 258.6 12.2
2002-08-12 12:30:33 51°6.5 2°31.248 264.8 10.3 260.3 11.3
2002-08-12 12:31:33 51°6.515 2°30.998 311.5 9.3 308.1 9.1
2002-08-12 12:32:33 51°6.664 2°30.923 351.5 9.9 350 9.1
2002-08-12 12:33:32 51°6.829 2°30.941 16 10.3 15.6 9.7
2002-08-12 12:34:33 51°6.991 2°31.059 30 11.1 30.1 10.4
2002-08-12 12:35:33 51°7.171 2°31.246 41.2 13.6 39.7 11.4
2002-08-12 12:36:33 51°7.332 2°31.509 48.8 14 47.5 12.2
2002-08-12 12:37:33 51°7.487 2°31.788 50.7 14.1 49.5 13.3
2002-08-12 12:38:33 51°7.626 2°32.086 55.8 14 54.4 14
2002-08-12 12:39:33 51°7.757 2°32.392 57.7 14 56.7 15
2002-08-12 12:40:33 51°7.889 2°32.699 57.3 14 56.3 15.6
2002-08-12 12:41:33 51°8.025 2°33.003 55.7 14.1 54.2 16.6
2002-08-12 12:42:33 51°8.157 2°33.312 57.5 14.1 56.2 17.5
2002-08-12 12:43:33 51°8.285 2°33.625 58.7 14.2 57.4 18
2002-08-12 12:44:33 51°8.411 2°33.943 60.8 14.2 59.4 18.3
2002-08-12 12:45:33 51°8.532 2°34.265 61.2 14.3 59.8 18.5
2002-08-12 12:46:33 51°8.654 2°34.586 60.5 14.2 60 18.3
2002-08-12 12:47:33 51°8.772 2°34.915 63.7 14.3 62.2 18.1
2002-08-12 12:48:33 51°8.881 2°35.25 65.5 14.2 64.5 17.9
2002-08-12 12:49:33 51°8.989 2°35.582 63.7 14.2 62.4 17.8
2002-08-12 12:50:33 51°9.103 2°35.913 62.2 14.2 60.8 17.7
2002-08-12 12:51:33 51°9.215 2°36.245 63 14.4 61.4 17.7
2002-08-12 12:52:33 51°9.329 2°36.578 63 14.4 61.7 17.8
2002-08-12 12:53:33 51°9.444 2°36.911 62.7 14.4 61.2 17.4
2002-08-12 12:54:33 51°9.553 2°37.25 67 14.4 65.4 17.4
2002-08-12 12:55:32 51°9.648 2°37.591 67.2 14.3 65.7 16.9
2002-08-12 12:56:33 51°9.758 2°37.935 58.7 14.3 57.2 16.9
2002-08-12 12:57:33 51°9.899 2°38.238 46.3 14.2 45.6 17.2
2002-08-12 12:58:33 51°10.071 2°38.495 43.3 14.3 42.3 17.5
2002-08-12 12:59:33 51°10.237 2°38.768 48.3 14.3 47.8 17.5
2002-08-12 13:00:33 51°10.39 2°39.063 52.7 14.5 51.8 17.3
2002-08-12 13:01:33 51°10.498 2°39.402 74.3 14.5 72.7 17.1
2002-08-12 13:02:33 51°10.559 2°39.777 76.8 14.7 75.2 16.6
2002-08-12 13:03:33 51°10.626 2°40.154 76 14.8 74.4 15.9
2002-08-12 13:04:33 51°10.691 2°40.531 75.5 14.9 74 15.2
2002-08-12 13:05:33 51°10.758 2°40.91 75.7 14.9 74.3 14.8
2002-08-12 13:06:33 51°10.829 2°41.29 74.8 14.9 73.3 14.7
2002-08-12 13:07:33 51°10.899 2°41.671 75.2 15.1 73.3 14.6
2002-08-12 13:08:33 51°10.971 2°42.056 75.5 15 73.8 14.8
2002-08-12 13:09:33 51°11.043 2°42.437 75.2 15 72.9 14.9
2002-08-12 13:10:33 51°11.114 2°42.82 74.7 15.1 72.5 14.9
2002-08-12 13:11:33 51°11.186 2°43.202 75.3 15.1 73.1 15
2002-08-12 13:12:33 51°11.26 2°43.584 75 15.1 72.7 15
2002-08-12 13:13:33 51°11.337 2°43.968 74.7 15.2 72.5 15
2002-08-12 13:14:33 51°11.413 2°44.353 74.5 15.3 72.2 15.1
2002-08-12 13:15:33 51°11.487 2°44.734 75 15 72.3 15.2
2002-08-12 13:16:33 51°11.562 2°45.118 74.7 15.2 72.5 15.2
2002-08-12 13:17:33 51°11.643 2°45.501 73 15.3 70.9 15.3
2002-08-12 13:18:33 51°11.728 2°45.884 71 15.3 69.5 15.3
2002-08-12 13:19:33 51°11.821 2°46.26 70.2 15.3 68.7 15.3
2002-08-12 13:20:33 51°11.916 2°46.63 68.7 15.1 66.9 15.3
2002-08-12 13:21:33 51°12.015 2°47.003 68.3 15.2 66.6 15.3
2002-08-12 13:22:33 51°12.116 2°47.372 68.5 15.4 66.7 15.2
2002-08-12 13:23:33 51°12.22 2°47.74 67.7 15.2 65.9 15.1
2002-08-12 13:24:33 51°12.324 2°48.109 67 15.2 65.1 14.9
2002-08-12 13:25:33 51°12.443 2°48.468 64 15.4 62.1 14.8
2002-08-12 13:26:33 51°12.564 2°48.824 62.8 15.3 62 14.7
2002-08-12 13:27:33 51°12.681 2°49.182 64.5 15.3 62.7 14.5
2002-08-12 13:28:33 51°12.801 2°49.539 62.8 15.4 61.3 14.3
2002-08-12 13:29:33 51°12.92 2°49.9 64.3 15.4 62.3 14.2
2002-08-12 13:30:33 51°13.016 2°50.274 77.5 15.3 75.3 14
2002-08-12 13:31:33 51°13.096 2°50.662 71 15.4 68.7 13.6
2002-08-12 13:32:33 51°13.207 2°51.03 63 15.4 60.7 13.3
2002-08-12 13:33:33 51°13.332 2°51.352 57.8 12.2 56.4 13.5
2002-08-12 13:34:33 51°13.426 2°51.593 59.5 10 58.3 13.5
2002-08-12 13:35:33 51°13.552 2°51.861 52.2 14.1 51.3 13.4
2002-08-12 13:36:33 51°13.7 2°52.161 53.3 14.5 52.2 13.6
2002-08-12 13:37:33 51°13.848 2°52.469 54.7 14.7 53.1 13.6
2002-08-12 13:38:33 51°13.986 2°52.791 64.3 14.7 61.5 13.5
2002-08-12 13:39:33 51°14.1 2°53.138 63.3 14.9 60.7 13
2002-08-12 13:40:33 51°14.223 2°53.48 62.5 14.9 59.6 12.6
2002-08-12 13:41:33 51°14.341 2°53.826 64.7 14.8 62 12.6
2002-08-12 13:42:33 51°14.423 2°54.193 79.5 14.9 74.9 12.5
2002-08-12 13:43:33 51°14.464 2°54.57 101.2 14 94 12.8
2002-08-12 13:44:33 51°14.402 2°54.918 120.7 13.4 111.7 13
2002-08-12 13:45:33 51°14.301 2°55.186 130.5 10.1 128.6 13.5
2002-08-12 13:46:32 51°14.208 2°55.337 144.2 7 142.4 13.6
2002-08-12 13:47:33 51°14.116 2°55.42 157.8 5.9 156.2 13.4
2002-08-12 13:48:33 51°14.027 2°55.485 158 6 155.2 13.6
2002-08-12 13:49:33 51°13.934 2°55.548 157.7 6 156.5 13.8
2002-08-12 13:50:33 51°13.856 2°55.607 155.8 4.5 153.8 13